sensor_id;sensor_type;location;lat;lon;timestamp;pressure;altitude;pressure_sealevel;temperature;humidity
45129;BME280;35512;56.312;101.728;2022-12-11T00:02:03;96453.19;;;-14.00;80.42
45129;BME280;35512;56.312;101.728;2022-12-11T00:04:32;96448.59;;;-13.98;80.19
45129;BME280;35512;56.312;101.728;2022-12-11T00:07:01;96448.97;;;-13.95;80.34
45129;BME280;35512;56.312;101.728;2022-12-11T00:09:30;96456.16;;;-13.90;80.37
45129;BME280;35512;56.312;101.728;2022-12-11T00:11:59;96453.97;;;-13.93;80.12
45129;BME280;35512;56.312;101.728;2022-12-11T00:14:30;96462.16;;;-13.96;79.86
45129;BME280;35512;56.312;101.728;2022-12-11T00:16:59;96456.59;;;-14.00;80.12
45129;BME280;35512;56.312;101.728;2022-12-11T00:19:28;96462.00;;;-14.01;80.21
45129;BME280;35512;56.312;101.728;2022-12-11T00:21:56;96465.38;;;-14.01;79.74
45129;BME280;35512;56.312;101.728;2022-12-11T00:24:25;96475.53;;;-13.99;80.46
45129;BME280;35512;56.312;101.728;2022-12-11T00:26:54;96475.34;;;-13.98;80.25
45129;BME280;35512;56.312;101.728;2022-12-11T00:29:23;96462.78;;;-14.07;79.84
45129;BME280;35512;56.312;101.728;2022-12-11T00:31:52;96471.34;;;-14.00;79.68
45129;BME280;35512;56.312;101.728;2022-12-11T00:34:21;96471.75;;;-14.03;80.10
45129;BME280;35512;56.312;101.728;2022-12-11T00:36:50;96465.38;;;-14.01;79.96
45129;BME280;35512;56.312;101.728;2022-12-11T00:39:19;96468.53;;;-13.92;80.20
45129;BME280;35512;56.312;101.728;2022-12-11T00:41:47;96456.94;;;-13.89;79.90
45129;BME280;35512;56.312;101.728;2022-12-11T00:44:19;96462.72;;;-13.87;80.33
45129;BME280;35512;56.312;101.728;2022-12-11T00:46:48;96456.16;;;-13.90;79.99
45129;BME280;35512;56.312;101.728;2022-12-11T00:49:17;96464.28;;;-13.86;80.29
45129;BME280;35512;56.312;101.728;2022-12-11T00:51:45;96472.28;;;-13.88;79.81
45129;BME280;35512;56.312;101.728;2022-12-11T00:54:15;96470.53;;;-13.94;79.67
45129;BME280;35512;56.312;101.728;2022-12-11T00:56:43;96466.34;;;-13.95;79.84
45129;BME280;35512;56.312;101.728;2022-12-11T00:59:12;96466.56;;;-13.97;79.92
45129;BME280;35512;56.312;101.728;2022-12-11T01:01:42;96468.16;;;-13.96;79.90
45129;BME280;35512;56.312;101.728;2022-12-11T01:04:11;96476.16;;;-13.97;79.66
45129;BME280;35512;56.312;101.728;2022-12-11T01:06:40;96468.75;;;-14.00;79.84
45129;BME280;35512;56.312;101.728;2022-12-11T01:09:09;96478.13;;;-13.99;80.18
45129;BME280;35512;56.312;101.728;2022-12-11T01:11:56;96475.97;;;-14.02;79.85
45129;BME280;35512;56.312;101.728;2022-12-11T01:14:25;96483.75;;;-14.02;79.51
45129;BME280;35512;56.312;101.728;2022-12-11T01:16:54;96481.16;;;-14.02;80.03
45129;BME280;35512;56.312;101.728;2022-12-11T01:19:23;96481.75;;;-14.07;79.91
45129;BME280;35512;56.312;101.728;2022-12-11T01:21:52;96487.34;;;-14.10;79.76
45129;BME280;35512;56.312;101.728;2022-12-11T01:24:21;96481.19;;;-14.16;79.48
45129;BME280;35512;56.312;101.728;2022-12-11T01:26:50;96481.00;;;-14.21;79.42
45129;BME280;35512;56.312;101.728;2022-12-11T01:29:19;96500.75;;;-14.26;79.45
45129;BME280;35512;56.312;101.728;2022-12-11T01:31:49;96471.47;;;-14.40;79.08
45129;BME280;35512;56.312;101.728;2022-12-11T01:34:24;96475.25;;;-14.50;79.33
45129;BME280;35512;56.312;101.728;2022-12-11T01:37:01;96470.72;;;-14.68;79.06
45129;BME280;35512;56.312;101.728;2022-12-11T01:39:30;96475.72;;;-14.80;79.10
45129;BME280;35512;56.312;101.728;2022-12-11T01:42:00;96479.50;;;-14.96;78.79
45129;BME280;35512;56.312;101.728;2022-12-11T01:46:58;96481.69;;;-15.19;78.69
45129;BME280;35512;56.312;101.728;2022-12-11T01:49:28;96486.44;;;-15.36;78.76
45129;BME280;35512;56.312;101.728;2022-12-11T01:52:08;96489.59;;;-15.48;78.93
45129;BME280;35512;56.312;101.728;2022-12-11T01:54:40;96499.31;;;-15.63;78.58
45129;BME280;35512;56.312;101.728;2022-12-11T01:57:10;96495.72;;;-15.69;78.56
45129;BME280;35512;56.312;101.728;2022-12-11T01:59:43;96505.06;;;-15.74;78.77
45129;BME280;35512;56.312;101.728;2022-12-11T02:02:22;96512.19;;;-15.76;78.71
45129;BME280;35512;56.312;101.728;2022-12-11T02:04:54;96517.38;;;-15.76;79.34
45129;BME280;35512;56.312;101.728;2022-12-11T02:07:23;96515.56;;;-15.76;78.78
45129;BME280;35512;56.312;101.728;2022-12-11T02:09:52;96510.41;;;-15.76;78.66
45129;BME280;35512;56.312;101.728;2022-12-11T02:12:53;96514.78;;;-15.76;78.50
45129;BME280;35512;56.312;101.728;2022-12-11T02:15:35;96521.38;;;-15.80;78.77
45129;BME280;35512;56.312;101.728;2022-12-11T02:21:19;96529.31;;;-15.82;78.58
45129;BME280;35512;56.312;101.728;2022-12-11T02:27:15;96544.19;;;-15.97;78.45
45129;BME280;35512;56.312;101.728;2022-12-11T02:30:08;96544.94;;;-16.04;78.47
45129;BME280;35512;56.312;101.728;2022-12-11T02:35:23;96555.25;;;-16.10;78.64
45129;BME280;35512;56.312;101.728;2022-12-11T02:37:58;96554.81;;;-16.14;78.46
45129;BME280;35512;56.312;101.728;2022-12-11T02:40:30;96562.97;;;-16.17;78.44
45129;BME280;35512;56.312;101.728;2022-12-11T02:43:03;96563.94;;;-16.18;78.60
45129;BME280;35512;56.312;101.728;2022-12-11T02:45:34;96571.50;;;-16.23;78.12
45129;BME280;35512;56.312;101.728;2022-12-11T02:48:08;96564.47;;;-16.29;78.58
45129;BME280;35512;56.312;101.728;2022-12-11T02:50:41;96569.84;;;-16.31;78.29
45129;BME280;35512;56.312;101.728;2022-12-11T02:53:16;96581.97;;;-16.31;78.17
45129;BME280;35512;56.312;101.728;2022-12-11T02:55:49;96580.91;;;-16.37;78.46
45129;BME280;35512;56.312;101.728;2022-12-11T02:58:26;96575.16;;;-16.39;78.27
45129;BME280;35512;56.312;101.728;2022-12-11T03:00:58;96582.72;;;-16.38;78.64
45129;BME280;35512;56.312;101.728;2022-12-11T03:03:28;96580.13;;;-16.38;78.64
45129;BME280;35512;56.312;101.728;2022-12-11T03:05:58;96590.38;;;-16.23;78.79
45129;BME280;35512;56.312;101.728;2022-12-11T03:08:27;96586.63;;;-16.20;78.47
45129;BME280;35512;56.312;101.728;2022-12-11T03:10:56;96598.59;;;-16.19;78.26
45129;BME280;35512;56.312;101.728;2022-12-11T03:13:25;96605.31;;;-16.18;78.12
45129;BME280;35512;56.312;101.728;2022-12-11T03:16:03;96610.16;;;-16.15;78.24
45129;BME280;35512;56.312;101.728;2022-12-11T03:24:49;96612.00;;;-16.02;78.30
45129;BME280;35512;56.312;101.728;2022-12-11T03:30:20;96620.81;;;-15.96;78.13
45129;BME280;35512;56.312;101.728;2022-12-11T03:33:03;96626.25;;;-15.85;78.68
45129;BME280;35512;56.312;101.728;2022-12-11T03:38:16;96627.06;;;-15.77;78.21
45129;BME280;35512;56.312;101.728;2022-12-11T03:40:49;96623.28;;;-15.82;77.68
45129;BME280;35512;56.312;101.728;2022-12-11T03:43:21;96624.47;;;-15.84;77.95
45129;BME280;35512;56.312;101.728;2022-12-11T03:45:51;96631.44;;;-15.78;77.99
45129;BME280;35512;56.312;101.728;2022-12-11T03:48:22;96635.53;;;-15.62;78.43
45129;BME280;35512;56.312;101.728;2022-12-11T03:50:53;96634.63;;;-15.41;78.29
45129;BME280;35512;56.312;101.728;2022-12-11T03:53:24;96641.28;;;-15.25;78.29
45129;BME280;35512;56.312;101.728;2022-12-11T03:55:56;96654.50;;;-15.06;78.50
45129;BME280;35512;56.312;101.728;2022-12-11T03:58:27;96653.72;;;-15.00;78.10
45129;BME280;35512;56.312;101.728;2022-12-11T04:00:56;96651.94;;;-14.93;78.60
45129;BME280;35512;56.312;101.728;2022-12-11T04:03:26;96654.00;;;-14.82;78.49
45129;BME280;35512;56.312;101.728;2022-12-11T04:05:55;96658.81;;;-14.72;78.54
45129;BME280;35512;56.312;101.728;2022-12-11T04:08:24;96664.56;;;-14.70;78.69
45129;BME280;35512;56.312;101.728;2022-12-11T04:10:53;96663.34;;;-14.81;77.67
45129;BME280;35512;56.312;101.728;2022-12-11T04:13:41;96666.84;;;-15.08;77.63
45129;BME280;35512;56.312;101.728;2022-12-11T04:16:10;96663.81;;;-15.19;77.86
45129;BME280;35512;56.312;101.728;2022-12-11T04:18:39;96679.88;;;-15.37;77.80
45129;BME280;35512;56.312;101.728;2022-12-11T04:21:26;96675.63;;;-15.51;77.77
45129;BME280;35512;56.312;101.728;2022-12-11T04:24:13;96674.72;;;-15.65;77.62
45129;BME280;35512;56.312;101.728;2022-12-11T04:26:44;96683.03;;;-15.76;77.52
45129;BME280;35512;56.312;101.728;2022-12-11T04:29:14;96686.59;;;-15.77;78.11
45129;BME280;35512;56.312;101.728;2022-12-11T04:31:43;96685.41;;;-15.75;78.11
45129;BME280;35512;56.312;101.728;2022-12-11T04:34:13;96682.44;;;-15.72;78.42
45129;BME280;35512;56.312;101.728;2022-12-11T04:36:42;96677.88;;;-15.70;78.01
45129;BME280;35512;56.312;101.728;2022-12-11T04:39:11;96682.69;;;-15.67;77.83
45129;BME280;35512;56.312;101.728;2022-12-11T04:41:40;96687.13;;;-15.60;77.97
45129;BME280;35512;56.312;101.728;2022-12-11T04:44:09;96689.22;;;-15.42;78.25
45129;BME280;35512;56.312;101.728;2022-12-11T04:46:37;96688.22;;;-15.41;77.97
45129;BME280;35512;56.312;101.728;2022-12-11T04:49:06;96692.59;;;-15.42;77.91
45129;BME280;35512;56.312;101.728;2022-12-11T04:51:36;96694.03;;;-15.33;78.27
45129;BME280;35512;56.312;101.728;2022-12-11T04:54:05;96697.31;;;-15.10;78.34
45129;BME280;35512;56.312;101.728;2022-12-11T04:56:34;96696.59;;;-14.98;78.17
45129;BME280;35512;56.312;101.728;2022-12-11T04:59:03;96700.94;;;-15.11;77.37
45129;BME280;35512;56.312;101.728;2022-12-11T05:01:33;96716.38;;;-15.32;76.68
45129;BME280;35512;56.312;101.728;2022-12-11T05:04:02;96703.19;;;-15.65;76.46
45129;BME280;35512;56.312;101.728;2022-12-11T05:06:31;96713.81;;;-15.88;76.47
45129;BME280;35512;56.312;101.728;2022-12-11T05:09:00;96723.41;;;-16.10;76.29
45129;BME280;35512;56.312;101.728;2022-12-11T05:11:28;96677.59;;;-16.17;76.75
45129;BME280;35512;56.312;101.728;2022-12-11T05:13:58;96717.84;;;-16.29;76.70
45129;BME280;35512;56.312;101.728;2022-12-11T05:16:26;96720.56;;;-16.37;76.48
45129;BME280;35512;56.312;101.728;2022-12-11T05:18:55;96711.94;;;-16.44;76.92
45129;BME280;35512;56.312;101.728;2022-12-11T05:21:24;96728.72;;;-16.55;76.84
45129;BME280;35512;56.312;101.728;2022-12-11T05:24:02;96716.03;;;-16.72;76.98
45129;BME280;35512;56.312;101.728;2022-12-11T05:26:31;96721.91;;;-16.63;77.33
45129;BME280;35512;56.312;101.728;2022-12-11T05:29:00;96720.19;;;-16.56;77.18
45129;BME280;35512;56.312;101.728;2022-12-11T05:31:29;96722.28;;;-16.44;77.52
45129;BME280;35512;56.312;101.728;2022-12-11T05:33:58;96726.09;;;-16.40;77.39
45129;BME280;35512;56.312;101.728;2022-12-11T05:36:32;96719.28;;;-16.48;76.75
45129;BME280;35512;56.312;101.728;2022-12-11T05:39:02;96719.66;;;-16.66;76.44
45129;BME280;35512;56.312;101.728;2022-12-11T05:41:31;96733.06;;;-16.77;76.51
45129;BME280;35512;56.312;101.728;2022-12-11T05:44:00;96735.53;;;-16.91;76.50
45129;BME280;35512;56.312;101.728;2022-12-11T05:46:30;96739.72;;;-17.05;76.54
45129;BME280;35512;56.312;101.728;2022-12-11T05:49:00;96737.94;;;-17.04;77.04
45129;BME280;35512;56.312;101.728;2022-12-11T05:51:30;96738.69;;;-16.74;77.45
45129;BME280;35512;56.312;101.728;2022-12-11T05:54:02;96734.38;;;-16.30;77.82
45129;BME280;35512;56.312;101.728;2022-12-11T05:56:32;96740.34;;;-16.08;77.86
45129;BME280;35512;56.312;101.728;2022-12-11T05:59:03;96739.09;;;-16.12;77.26
45129;BME280;35512;56.312;101.728;2022-12-11T06:01:40;96734.56;;;-16.31;76.90
45129;BME280;35512;56.312;101.728;2022-12-11T06:04:11;96741.91;;;-16.50;76.80
45129;BME280;35512;56.312;101.728;2022-12-11T06:06:40;96722.50;;;-16.61;76.83
45129;BME280;35512;56.312;101.728;2022-12-11T06:09:15;96733.75;;;-16.90;76.25
45129;BME280;35512;56.312;101.728;2022-12-11T06:11:44;96767.69;;;-17.08;76.30
45129;BME280;35512;56.312;101.728;2022-12-11T06:14:13;96713.03;;;-17.27;75.97
45129;BME280;35512;56.312;101.728;2022-12-11T06:16:42;96755.69;;;-17.46;75.57
45129;BME280;35512;56.312;101.728;2022-12-11T06:19:14;96756.91;;;-17.57;76.08
45129;BME280;35512;56.312;101.728;2022-12-11T06:21:45;96779.94;;;-17.70;76.04
45129;BME280;35512;56.312;101.728;2022-12-11T06:24:16;96760.97;;;-17.77;76.07
45129;BME280;35512;56.312;101.728;2022-12-11T06:26:45;96773.50;;;-17.74;76.02
45129;BME280;35512;56.312;101.728;2022-12-11T06:29:13;96765.38;;;-17.86;75.61
45129;BME280;35512;56.312;101.728;2022-12-11T06:31:43;96789.50;;;-17.94;75.95
45129;BME280;35512;56.312;101.728;2022-12-11T06:34:12;96769.84;;;-17.95;75.83
45129;BME280;35512;56.312;101.728;2022-12-11T06:36:41;96770.34;;;-17.99;75.84
45129;BME280;35512;56.312;101.728;2022-12-11T06:39:10;96772.50;;;-18.03;76.06
45129;BME280;35512;56.312;101.728;2022-12-11T06:41:39;96764.16;;;-18.13;75.99
45129;BME280;35512;56.312;101.728;2022-12-11T06:44:08;96789.72;;;-18.04;75.83
45129;BME280;35512;56.312;101.728;2022-12-11T06:46:37;96793.63;;;-18.08;75.84
45129;BME280;35512;56.312;101.728;2022-12-11T06:49:06;96789.09;;;-18.06;75.98
45129;BME280;35512;56.312;101.728;2022-12-11T06:51:35;96790.84;;;-17.98;76.38
45129;BME280;35512;56.312;101.728;2022-12-11T06:54:04;96787.59;;;-18.00;76.17
45129;BME280;35512;56.312;101.728;2022-12-11T06:56:33;96789.47;;;-18.09;75.96
45129;BME280;35512;56.312;101.728;2022-12-11T06:59:02;96787.09;;;-18.18;75.77
45129;BME280;35512;56.312;101.728;2022-12-11T07:01:35;96810.13;;;-18.17;75.66
45129;BME280;35512;56.312;101.728;2022-12-11T07:04:04;96792.94;;;-18.25;75.77
45129;BME280;35512;56.312;101.728;2022-12-11T07:06:33;96785.69;;;-18.21;75.71
45129;BME280;35512;56.312;101.728;2022-12-11T07:09:05;96792.13;;;-18.25;75.90
45129;BME280;35512;56.312;101.728;2022-12-11T07:11:34;96801.34;;;-18.31;76.48
45129;BME280;35512;56.312;101.728;2022-12-11T07:14:03;96794.13;;;-18.35;76.11
45129;BME280;35512;56.312;101.728;2022-12-11T07:16:32;96789.16;;;-18.37;75.81
45129;BME280;35512;56.312;101.728;2022-12-11T07:19:01;96801.22;;;-18.38;75.92
45129;BME280;35512;56.312;101.728;2022-12-11T07:21:29;96801.78;;;-18.50;75.56
45129;BME280;35512;56.312;101.728;2022-12-11T07:23:58;96799.59;;;-18.62;75.68
45129;BME280;35512;56.312;101.728;2022-12-11T07:26:27;96799.78;;;-18.72;75.79
45129;BME280;35512;56.312;101.728;2022-12-11T07:28:57;96814.97;;;-18.77;75.89
45129;BME280;35512;56.312;101.728;2022-12-11T07:31:28;96815.75;;;-18.76;75.80
45129;BME280;35512;56.312;101.728;2022-12-11T07:34:00;96819.94;;;-18.75;75.96
45129;BME280;35512;56.312;101.728;2022-12-11T07:36:30;96831.19;;;-18.76;75.88
45129;BME280;35512;56.312;101.728;2022-12-11T07:39:00;96848.59;;;-18.78;75.95
45129;BME280;35512;56.312;101.728;2022-12-11T07:41:29;96837.19;;;-18.84;75.61
45129;BME280;35512;56.312;101.728;2022-12-11T07:43:59;96846.25;;;-18.96;75.71
45129;BME280;35512;56.312;101.728;2022-12-11T07:46:30;96857.25;;;-19.11;75.56
45129;BME280;35512;56.312;101.728;2022-12-11T07:49:00;96859.84;;;-19.19;75.68
45129;BME280;35512;56.312;101.728;2022-12-11T07:51:33;96848.59;;;-19.34;75.43
45129;BME280;35512;56.312;101.728;2022-12-11T07:54:09;96864.19;;;-19.44;75.61
45129;BME280;35512;56.312;101.728;2022-12-11T07:56:39;96867.28;;;-19.57;75.41
45129;BME280;35512;56.312;101.728;2022-12-11T07:59:11;96864.38;;;-19.70;75.42
45129;BME280;35512;56.312;101.728;2022-12-11T08:01:40;96877.88;;;-19.77;75.58
45129;BME280;35512;56.312;101.728;2022-12-11T08:04:11;96883.34;;;-19.88;75.44
45129;BME280;35512;56.312;101.728;2022-12-11T08:06:43;96881.72;;;-19.97;75.56
45129;BME280;35512;56.312;101.728;2022-12-11T08:09:12;96890.38;;;-20.06;75.50
45129;BME280;35512;56.312;101.728;2022-12-11T08:11:49;96894.09;;;-20.09;75.44
45129;BME280;35512;56.312;101.728;2022-12-11T08:14:19;96890.69;;;-20.18;75.42
45129;BME280;35512;56.312;101.728;2022-12-11T08:16:48;96904.78;;;-20.30;75.37
45129;BME280;35512;56.312;101.728;2022-12-11T08:19:17;96910.41;;;-20.35;75.20
45129;BME280;35512;56.312;101.728;2022-12-11T08:21:46;96902.66;;;-20.43;75.41
45129;BME280;35512;56.312;101.728;2022-12-11T08:24:15;96916.28;;;-20.51;75.39
45129;BME280;35512;56.312;101.728;2022-12-11T08:26:47;96921.22;;;-20.57;75.32
45129;BME280;35512;56.312;101.728;2022-12-11T08:29:16;96914.00;;;-20.62;75.19
45129;BME280;35512;56.312;101.728;2022-12-11T08:31:45;96877.91;;;-20.95;75.32
45129;BME280;35512;56.312;101.728;2022-12-11T08:34:14;96932.56;;;-20.77;75.26
45129;BME280;35512;56.312;101.728;2022-12-11T08:36:43;96920.00;;;-20.88;75.33
45129;BME280;35512;56.312;101.728;2022-12-11T08:39:12;96924.59;;;-20.91;75.47
45129;BME280;35512;56.312;101.728;2022-12-11T08:41:41;96926.19;;;-20.99;75.18
45129;BME280;35512;56.312;101.728;2022-12-11T08:44:11;96941.56;;;-20.99;75.24
45129;BME280;35512;56.312;101.728;2022-12-11T08:46:45;96944.09;;;-21.07;75.38
45129;BME280;35512;56.312;101.728;2022-12-11T08:49:16;96950.31;;;-21.09;75.46
45129;BME280;35512;56.312;101.728;2022-12-11T08:51:45;96958.97;;;-21.11;75.32
45129;BME280;35512;56.312;101.728;2022-12-11T08:54:14;96962.00;;;-21.15;75.34
45129;BME280;35512;56.312;101.728;2022-12-11T08:56:43;96973.50;;;-21.19;75.52
45129;BME280;35512;56.312;101.728;2022-12-11T08:59:12;96968.53;;;-21.21;75.40
45129;BME280;35512;56.312;101.728;2022-12-11T09:01:41;96981.78;;;-21.25;75.54
45129;BME280;35512;56.312;101.728;2022-12-11T09:04:11;96983.75;;;-21.37;75.22
45129;BME280;35512;56.312;101.728;2022-12-11T09:06:40;96990.81;;;-21.39;75.38
45129;BME280;35512;56.312;101.728;2022-12-11T09:09:08;97004.75;;;-21.42;74.97
45129;BME280;35512;56.312;101.728;2022-12-11T09:11:37;97000.72;;;-21.45;75.33
45129;BME280;35512;56.312;101.728;2022-12-11T09:14:06;97011.13;;;-21.46;75.37
45129;BME280;35512;56.312;101.728;2022-12-11T09:16:38;97009.78;;;-21.50;75.19
45129;BME280;35512;56.312;101.728;2022-12-11T09:19:11;97017.81;;;-21.53;75.31
45129;BME280;35512;56.312;101.728;2022-12-11T09:21:42;97018.38;;;-21.59;75.22
45129;BME280;35512;56.312;101.728;2022-12-11T09:24:12;97019.13;;;-21.67;74.96
45129;BME280;35512;56.312;101.728;2022-12-11T09:26:41;97020.22;;;-21.70;75.53
45129;BME280;35512;56.312;101.728;2022-12-11T09:29:11;97039.09;;;-21.71;75.32
45129;BME280;35512;56.312;101.728;2022-12-11T09:31:40;97037.00;;;-21.75;75.24
45129;BME280;35512;56.312;101.728;2022-12-11T09:34:11;97043.31;;;-21.80;75.12
45129;BME280;35512;56.312;101.728;2022-12-11T09:36:41;97045.22;;;-21.82;75.31
45129;BME280;35512;56.312;101.728;2022-12-11T09:39:13;97048.88;;;-21.84;75.07
45129;BME280;35512;56.312;101.728;2022-12-11T09:46:56;97049.03;;;-21.86;74.94
45129;BME280;35512;56.312;101.728;2022-12-11T09:49:38;97057.81;;;-21.88;75.01
45129;BME280;35512;56.312;101.728;2022-12-11T09:54:51;97060.56;;;-22.00;75.06
45129;BME280;35512;56.312;101.728;2022-12-11T09:57:32;97058.41;;;-22.04;74.75
45129;BME280;35512;56.312;101.728;2022-12-11T10:16:48;97091.31;;;-22.37;74.83
45129;BME280;35512;56.312;101.728;2022-12-11T10:19:26;97087.28;;;-22.40;74.77
45129;BME280;35512;56.312;101.728;2022-12-11T10:21:57;97084.47;;;-22.47;74.90
45129;BME280;35512;56.312;101.728;2022-12-11T10:24:41;97090.81;;;-22.41;74.70
45129;BME280;35512;56.312;101.728;2022-12-11T10:27:34;97105.78;;;-22.46;74.98
45129;BME280;35512;56.312;101.728;2022-12-11T10:30:14;97097.16;;;-22.55;74.84
45129;BME280;35512;56.312;101.728;2022-12-11T10:35:51;97130.19;;;-22.52;74.84
45129;BME280;35512;56.312;101.728;2022-12-11T10:38:27;97141.75;;;-22.57;74.72
45129;BME280;35512;56.312;101.728;2022-12-11T10:41:00;97150.66;;;-22.61;74.78
45129;BME280;35512;56.312;101.728;2022-12-11T10:43:41;97142.97;;;-22.61;74.86
45129;BME280;35512;56.312;101.728;2022-12-11T10:46:22;97151.84;;;-22.66;74.75
45129;BME280;35512;56.312;101.728;2022-12-11T10:48:56;97147.81;;;-22.68;74.67
45129;BME280;35512;56.312;101.728;2022-12-11T10:51:35;97156.31;;;-22.68;74.65
45129;BME280;35512;56.312;101.728;2022-12-11T10:54:28;97150.00;;;-22.73;74.73
45129;BME280;35512;56.312;101.728;2022-12-11T10:56:57;97158.88;;;-22.77;74.62
45129;BME280;35512;56.312;101.728;2022-12-11T10:59:38;97155.63;;;-22.79;74.60
45129;BME280;35512;56.312;101.728;2022-12-11T11:02:28;97158.19;;;-22.79;74.69
45129;BME280;35512;56.312;101.728;2022-12-11T11:05:12;97165.22;;;-22.82;74.57
45129;BME280;35512;56.312;101.728;2022-12-11T11:07:42;97161.31;;;-22.86;74.60
45129;BME280;35512;56.312;101.728;2022-12-11T11:12:46;97163.47;;;-22.91;74.56
45129;BME280;35512;56.312;101.728;2022-12-11T11:15:26;97150.09;;;-22.94;74.36
45129;BME280;35512;56.312;101.728;2022-12-11T11:17:59;97157.41;;;-22.90;74.36
45129;BME280;35512;56.312;101.728;2022-12-11T11:20:33;97153.50;;;-22.94;74.28
45129;BME280;35512;56.312;101.728;2022-12-11T11:23:12;97154.56;;;-22.96;74.41
45129;BME280;35512;56.312;101.728;2022-12-11T11:26:05;97155.78;;;-23.01;74.28
45129;BME280;35512;56.312;101.728;2022-12-11T11:28:36;97150.78;;;-23.12;74.25
45129;BME280;35512;56.312;101.728;2022-12-11T11:31:11;97154.94;;;-23.11;74.28
45129;BME280;35512;56.312;101.728;2022-12-11T11:34:00;97166.94;;;-23.11;74.17
45129;BME280;35512;56.312;101.728;2022-12-11T11:36:35;97165.34;;;-23.12;74.14
45129;BME280;35512;56.312;101.728;2022-12-11T11:47:29;97206.63;;;-23.27;74.20
45129;BME280;35512;56.312;101.728;2022-12-11T11:52:47;97210.50;;;-23.33;74.23
45129;BME280;35512;56.312;101.728;2022-12-11T11:56:00;97207.44;;;-23.36;74.22
45129;BME280;35512;56.312;101.728;2022-12-11T12:01:18;97204.88;;;-23.36;74.13
45129;BME280;35512;56.312;101.728;2022-12-11T12:03:48;97212.63;;;-23.38;74.24
45129;BME280;35512;56.312;101.728;2022-12-11T12:06:35;97202.69;;;-23.41;73.91
45129;BME280;35512;56.312;101.728;2022-12-11T12:17:43;97215.84;;;-23.55;73.84
45129;BME280;35512;56.312;101.728;2022-12-11T12:20:37;97212.44;;;-23.56;74.04
45129;BME280;35512;56.312;101.728;2022-12-11T12:26:16;97219.19;;;-23.55;74.01
45129;BME280;35512;56.312;101.728;2022-12-11T12:29:25;97231.97;;;-23.55;73.71
45129;BME280;35512;56.312;101.728;2022-12-11T12:46:36;97254.75;;;-23.73;73.85
45129;BME280;35512;56.312;101.728;2022-12-11T12:49:33;97253.81;;;-23.72;73.83
45129;BME280;35512;56.312;101.728;2022-12-11T12:52:04;97260.94;;;-23.75;73.67
45129;BME280;35512;56.312;101.728;2022-12-11T12:54:34;97247.72;;;-23.80;73.56
45129;BME280;35512;56.312;101.728;2022-12-11T12:57:04;97269.78;;;-23.79;73.26
45129;BME280;35512;56.312;101.728;2022-12-11T12:59:33;97267.34;;;-23.91;73.26
45129;BME280;35512;56.312;101.728;2022-12-11T13:02:03;97266.88;;;-23.96;73.39
45129;BME280;35512;56.312;101.728;2022-12-11T13:04:42;97263.19;;;-24.03;73.28
45129;BME280;35512;56.312;101.728;2022-12-11T13:07:29;97263.84;;;-24.11;73.19
45129;BME280;35512;56.312;101.728;2022-12-11T13:10:25;97273.16;;;-24.21;73.22
45129;BME280;35512;56.312;101.728;2022-12-11T13:12:55;97282.38;;;-24.30;73.02
45129;BME280;35512;56.312;101.728;2022-12-11T13:15:39;97279.63;;;-24.38;73.00
45129;BME280;35512;56.312;101.728;2022-12-11T13:20:57;97293.78;;;-24.45;73.17
45129;BME280;35512;56.312;101.728;2022-12-11T13:23:33;97299.97;;;-24.48;73.08
45129;BME280;35512;56.312;101.728;2022-12-11T13:26:02;97306.00;;;-24.49;73.07
45129;BME280;35512;56.312;101.728;2022-12-11T13:33:50;97309.53;;;-24.61;72.99
45129;BME280;35512;56.312;101.728;2022-12-11T13:38:59;97311.00;;;-24.59;73.25
45129;BME280;35512;56.312;101.728;2022-12-11T13:41:29;97312.25;;;-24.53;73.12
45129;BME280;35512;56.312;101.728;2022-12-11T13:44:01;97323.16;;;-24.51;73.26
45129;BME280;35512;56.312;101.728;2022-12-11T13:46:34;97325.47;;;-24.48;73.35
45129;BME280;35512;56.312;101.728;2022-12-11T13:49:06;97321.84;;;-24.45;73.28
45129;BME280;35512;56.312;101.728;2022-12-11T13:51:35;97318.97;;;-24.41;73.17
45129;BME280;35512;56.312;101.728;2022-12-11T13:54:16;97318.47;;;-24.35;73.49
45129;BME280;35512;56.312;101.728;2022-12-11T13:57:42;97321.59;;;-24.31;73.15
45129;BME280;35512;56.312;101.728;2022-12-11T14:00:03;97313.69;;;-24.28;73.29
45129;BME280;35512;56.312;101.728;2022-12-11T14:02:38;97315.31;;;-24.27;73.18
45129;BME280;35512;56.312;101.728;2022-12-11T14:05:11;97317.97;;;-24.28;73.05
45129;BME280;35512;56.312;101.728;2022-12-11T14:07:46;97324.00;;;-24.29;73.05
45129;BME280;35512;56.312;101.728;2022-12-11T14:10:27;97321.59;;;-24.31;73.14
45129;BME280;35512;56.312;101.728;2022-12-11T14:15:30;97337.16;;;-24.34;72.91
45129;BME280;35512;56.312;101.728;2022-12-11T14:18:00;97336.91;;;-24.31;73.10
45129;BME280;35512;56.312;101.728;2022-12-11T14:20:31;97343.97;;;-24.23;73.15
45129;BME280;35512;56.312;101.728;2022-12-11T14:23:16;97356.03;;;-24.25;73.18
45129;BME280;35512;56.312;101.728;2022-12-11T14:25:56;97361.22;;;-24.15;73.17
45129;BME280;35512;56.312;101.728;2022-12-11T14:28:28;97372.13;;;-24.13;73.05
45129;BME280;35512;56.312;101.728;2022-12-11T14:30:59;97368.53;;;-24.22;72.98
45129;BME280;35512;56.312;101.728;2022-12-11T14:33:46;97368.31;;;-24.19;72.94
45129;BME280;35512;56.312;101.728;2022-12-11T14:36:18;97369.94;;;-24.18;73.12
45129;BME280;35512;56.312;101.728;2022-12-11T14:38:53;97365.66;;;-24.17;72.89
45129;BME280;35512;56.312;101.728;2022-12-11T14:41:53;97367.38;;;-24.18;72.89
45129;BME280;35512;56.312;101.728;2022-12-11T14:44:26;97369.13;;;-24.19;73.23
45129;BME280;35512;56.312;101.728;2022-12-11T14:47:01;97369.81;;;-24.16;72.98